Time;durP1;ratioP1;P1;durP2;ratioP2;P2;SDS_P1;SDS_P2;PMS_P1;PMS_P2;Temp;Humidity;BMP_temperature;BMP_pressure;BME280_temperature;BME280_humidity;BME280_pressure;Samples;Min_cycle;Max_cycle;Signal;HPM_P1;HPM_P2
2020/12/31 00:02:04;;;;;;;12.97;7.73;;;7.40;99.90;;;;;;4997017;28;20608;-89
2020/12/31 00:04:33;;;;;;;10.60;7.30;;;7.40;99.90;;;;;;5008342;28;20175;-89
2020/12/31 00:06:59;;;;;;;8.07;7.28;;;7.40;99.90;;;;;;5017723;28;20537;-88
2020/12/31 00:09:24;;;;;;;9.07;8.20;;;7.40;99.90;;;;;;5015500;28;20177;-89
2020/12/31 00:11:50;;;;;;;10.53;7.00;;;7.40;99.90;;;;;;4999656;28;20173;-89
2020/12/31 00:14:20;;;;;;;8.73;7.77;;;7.30;99.90;;;;;;5016171;28;20222;-89
2020/12/31 00:16:46;;;;;;;8.07;6.70;;;7.30;99.90;;;;;;5015846;28;20176;-90
2020/12/31 00:19:15;;;;;;;9.07;7.80;;;7.30;99.90;;;;;;4998581;28;20593;-89
2020/12/31 00:21:43;;;;;;;14.30;7.83;;;7.30;99.90;;;;;;5015942;28;20181;-90
2020/12/31 00:24:09;;;;;;;8.47;7.67;;;7.20;99.90;;;;;;4983007;28;20177;-89
2020/12/31 00:26:37;;;;;;;8.53;6.77;;;7.20;99.90;;;;;;4999931;28;20215;-90
2020/12/31 00:29:03;;;;;;;9.10;6.77;;;7.20;99.90;;;;;;4998519;28;20196;-89
2020/12/31 00:31:29;;;;;;;10.83;7.37;;;7.10;99.90;;;;;;5015876;28;20165;-89
2020/12/31 00:33:55;;;;;;;10.17;7.20;;;7.10;99.90;;;;;;5015368;28;20177;-89
2020/12/31 00:36:20;;;;;;;9.30;7.17;;;7.10;99.90;;;;;;4999477;28;20169;-90
2020/12/31 00:38:51;;;;;;;7.20;6.50;;;7.10;99.90;;;;;;4982701;28;20228;-88
2020/12/31 00:41:22;;;;;;;9.30;6.43;;;7.10;99.90;;;;;;4999242;28;20177;-89
2020/12/31 00:43:49;;;;;;;13.80;7.47;;;7.20;99.90;;;;;;5000565;28;20256;-90
2020/12/31 00:46:15;;;;;;;8.27;6.90;;;7.20;99.90;;;;;;4983010;28;20300;-89
2020/12/31 00:48:43;;;;;;;7.80;7.00;;;7.10;99.90;;;;;;4998411;28;20172;-90
2020/12/31 00:51:12;;;;;;;8.37;6.77;;;7.10;99.90;;;;;;5014957;28;20271;-90
2020/12/31 00:53:40;;;;;;;10.03;7.13;;;7.10;99.90;;;;;;5009630;28;20207;-89
2020/12/31 00:56:06;;;;;;;10.50;7.53;;;7.10;99.90;;;;;;5016147;28;20216;-90
2020/12/31 00:58:32;;;;;;;12.97;7.87;;;7.10;99.90;;;;;;5027513;28;20209;-91
2020/12/31 01:00:58;;;;;;;16.97;7.73;;;7.20;99.90;;;;;;5021516;28;20203;-91
2020/12/31 01:03:23;;;;;;;11.97;7.30;;;7.20;99.90;;;;;;5022148;28;20175;-91
2020/12/31 01:05:49;;;;;;;9.50;7.30;;;7.10;99.90;;;;;;5006972;28;20169;-90
2020/12/31 01:08:18;;;;;;;13.03;7.30;;;7.20;99.90;;;;;;5014994;28;20185;-89
2020/12/31 01:10:44;;;;;;;17.43;8.83;;;7.10;99.90;;;;;;4999119;28;20177;-89
2020/12/31 01:13:09;;;;;;;18.77;8.20;;;7.10;99.90;;;;;;4999273;28;20535;-90
2020/12/31 01:15:35;;;;;;;17.30;8.27;;;7.10;99.90;;;;;;5014690;28;20173;-90
2020/12/31 01:18:03;;;;;;;12.57;7.47;;;7.10;99.90;;;;;;4998318;28;20250;-90
2020/12/31 01:20:32;;;;;;;9.80;7.57;;;7.00;99.90;;;;;;4998329;28;20188;-90
2020/12/31 01:23:08;;;;;;;9.80;7.70;;;6.90;99.90;;;;;;5015852;28;20177;-90
2020/12/31 01:25:34;;;;;;;9.67;6.97;;;6.90;99.90;;;;;;5035052;28;20180;-90
2020/12/31 01:28:01;;;;;;;9.13;6.73;;;6.90;99.90;;;;;;5015722;28;20187;-91
2020/12/31 01:30:27;;;;;;;19.83;6.63;;;6.90;99.90;;;;;;5023770;28;20193;-90
2020/12/31 01:32:55;;;;;;;10.67;6.03;;;6.90;99.90;;;;;;5015107;28;20511;-89
2020/12/31 01:35:21;;;;;;;11.47;5.67;;;6.80;99.90;;;;;;4995860;28;20220;-90
2020/12/31 01:37:50;;;;;;;7.80;4.67;;;6.80;99.90;;;;;;4984494;28;20231;-90
2020/12/31 01:40:16;;;;;;;6.67;4.10;;;6.70;99.90;;;;;;4998791;28;20635;-89
2020/12/31 01:42:45;;;;;;;6.83;3.60;;;6.50;99.90;;;;;;5013628;28;20176;-89
2020/12/31 01:45:11;;;;;;;9.73;3.90;;;6.50;99.90;;;;;;5018798;28;20303;-89
2020/12/31 01:47:54;;;;;;;5.63;2.83;;;6.40;99.90;;;;;;5006876;28;20220;-90
2020/12/31 01:50:20;;;;;;;8.93;2.93;;;6.30;99.90;;;;;;5015291;28;20696;-89
2020/12/31 01:52:50;;;;;;;13.30;3.80;;;6.20;99.90;;;;;;5022613;28;20169;-90
2020/12/31 01:55:16;;;;;;;6.00;2.87;;;6.20;99.90;;;;;;5038653;28;20220;-91
2020/12/31 01:57:42;;;;;;;5.63;2.70;;;6.20;99.90;;;;;;5036470;28;20200;-92
2020/12/31 02:00:10;;;;;;;6.70;3.20;;;6.30;99.90;;;;;;5027418;28;20170;-90
2020/12/31 02:02:36;;;;;;;6.63;3.57;;;6.30;99.90;;;;;;5037742;28;20237;-91
2020/12/31 02:05:02;;;;;;;5.33;3.20;;;6.40;99.90;;;;;;5024891;28;20181;-90
2020/12/31 02:07:27;;;;;;;4.30;3.20;;;6.50;99.90;;;;;;5016015;28;20585;-90
2020/12/31 02:09:53;;;;;;;6.40;2.83;;;6.50;99.90;;;;;;4999411;28;20219;-90
2020/12/31 02:12:22;;;;;;;5.43;3.07;;;6.60;99.90;;;;;;5014203;28;20173;-90
2020/12/31 02:14:51;;;;;;;4.83;3.50;;;6.60;99.90;;;;;;4996384;28;20181;-89
2020/12/31 02:17:17;;;;;;;3.77;3.03;;;6.60;99.90;;;;;;4998449;28;20666;-90
2020/12/31 02:19:43;;;;;;;10.17;3.87;;;6.70;99.90;;;;;;4998498;28;20227;-89
2020/12/31 02:22:30;;;;;;;3.67;2.50;;;6.50;99.90;;;;;;4998049;28;20177;-89
2020/12/31 02:24:55;;;;;;;3.97;2.40;;;6.50;99.90;;;;;;4980122;28;20174;-89
2020/12/31 02:27:21;;;;;;;6.10;3.30;;;6.60;99.90;;;;;;4993973;28;20341;-89
2020/12/31 02:29:47;;;;;;;7.53;3.00;;;6.60;99.90;;;;;;5008044;28;20184;-90
2020/12/31 02:32:13;;;;;;;6.17;3.57;;;6.70;99.90;;;;;;5013821;28;20172;-90
2020/12/31 02:34:38;;;;;;;7.80;2.97;;;6.70;99.90;;;;;;4997345;28;20181;-90
2020/12/31 02:37:04;;;;;;;6.60;3.07;;;6.80;99.90;;;;;;5013151;28;20197;-90
2020/12/31 02:39:32;;;;;;;9.53;3.80;;;6.80;99.90;;;;;;5013651;28;20728;-90
2020/12/31 02:42:01;;;;;;;5.83;3.80;;;6.80;99.90;;;;;;5013941;28;20315;-89
2020/12/31 02:44:27;;;;;;;5.50;3.23;;;6.80;99.90;;;;;;5013609;28;20192;-89
2020/12/31 02:46:55;;;;;;;8.43;4.00;;;6.80;99.90;;;;;;4981324;28;20251;-89
2020/12/31 02:49:21;;;;;;;8.07;4.53;;;6.90;99.90;;;;;;5012874;28;20196;-89
2020/12/31 02:51:48;;;;;;;13.87;5.13;;;6.80;99.90;;;;;;4997306;28;20219;-90
2020/12/31 02:54:16;;;;;;;10.80;5.37;;;6.80;99.90;;;;;;4996891;28;20180;-89
2020/12/31 02:56:42;;;;;;;9.40;5.30;;;6.80;99.90;;;;;;5008485;28;20174;-89
2020/12/31 02:59:07;;;;;;;12.97;4.97;;;6.80;99.90;;;;;;4973899;28;20184;-89
2020/12/31 03:01:36;;;;;;;12.17;4.63;;;6.70;99.90;;;;;;4981995;28;20571;-90
2020/12/31 03:04:01;;;;;;;10.83;5.40;;;6.70;99.90;;;;;;4993564;28;20269;-90
2020/12/31 03:06:29;;;;;;;12.50;5.47;;;6.80;99.90;;;;;;4977738;28;20197;-89
2020/12/31 03:08:55;;;;;;;15.63;5.60;;;6.80;99.90;;;;;;5005687;28;20188;-90
2020/12/31 03:11:24;;;;;;;14.07;5.57;;;6.80;99.90;;;;;;5013219;28;20165;-90
2020/12/31 03:13:51;;;;;;;9.20;4.33;;;6.80;99.90;;;;;;5013134;28;20263;-90
2020/12/31 03:16:18;;;;;;;10.47;3.90;;;6.60;99.90;;;;;;5012995;28;20171;-89
2020/12/31 03:18:46;;;;;;;15.63;4.53;;;6.50;99.90;;;;;;5013152;28;20211;-89
2020/12/31 03:21:12;;;;;;;17.17;4.50;;;6.40;99.90;;;;;;4980650;28;20189;-90
2020/12/31 03:23:45;;;;;;;12.27;4.40;;;6.40;99.90;;;;;;4996617;28;20165;-90
2020/12/31 03:26:16;;;;;;;11.20;4.97;;;6.60;99.90;;;;;;4993229;28;20169;-89
2020/12/31 03:28:41;;;;;;;9.97;4.13;;;6.60;99.90;;;;;;5002927;28;20188;-89
2020/12/31 03:31:09;;;;;;;10.73;4.17;;;6.70;99.90;;;;;;4997375;28;20168;-89
2020/12/31 03:33:42;;;;;;;11.90;4.43;;;6.70;99.90;;;;;;4996674;28;20619;-89
2020/12/31 03:36:08;;;;;;;9.70;4.37;;;6.80;99.90;;;;;;4997079;28;20191;-89
2020/12/31 03:38:34;;;;;;;16.17;4.70;;;6.90;99.90;;;;;;4999347;28;20196;-89
2020/12/31 03:40:59;;;;;;;9.97;4.67;;;6.90;99.90;;;;;;5000252;28;20180;-90
2020/12/31 03:43:25;;;;;;;13.83;5.53;;;6.90;99.90;;;;;;4999922;28;20180;-89
2020/12/31 03:45:51;;;;;;;12.87;5.20;;;6.90;99.90;;;;;;5000299;28;20200;-89
2020/12/31 03:48:17;;;;;;;14.20;5.83;;;6.80;99.90;;;;;;4999940;28;20169;-88
2020/12/31 03:50:42;;;;;;;13.60;5.43;;;6.80;99.90;;;;;;5004081;28;20192;-89
2020/12/31 03:53:08;;;;;;;12.50;6.23;;;6.80;99.90;;;;;;5016992;28;20181;-90
2020/12/31 03:55:34;;;;;;;14.17;6.57;;;6.60;99.90;;;;;;5031210;28;20172;-89
2020/12/31 03:58:09;;;;;;;11.80;5.20;;;6.10;99.90;;;;;;4999362;28;20295;-90
2020/12/31 04:00:35;;;;;;;10.07;5.33;;;5.70;99.90;;;;;;5012445;28;20179;-89
2020/12/31 04:03:01;;;;;;;10.87;5.50;;;5.40;99.90;;;;;;4999905;28;20256;-90
2020/12/31 04:05:29;;;;;;;11.70;4.90;;;5.20;99.90;;;;;;5016284;28;20612;-89
2020/12/31 04:07:57;;;;;;;12.03;5.37;;;5.40;99.90;;;;;;5016884;28;20177;-90
2020/12/31 04:10:25;;;;;;;12.73;5.60;;;5.40;99.90;;;;;;5020619;28;20248;-89
2020/12/31 04:12:53;;;;;;;14.03;4.97;;;5.40;99.90;;;;;;5023406;28;20173;-89
2020/12/31 04:15:19;;;;;;;10.93;5.50;;;5.10;99.90;;;;;;4996733;28;20165;-89
2020/12/31 04:17:45;;;;;;;7.77;3.83;;;4.70;99.90;;;;;;4981033;28;20546;-89
2020/12/31 04:20:10;;;;;;;7.33;3.93;;;4.40;99.90;;;;;;4999863;28;20588;-89
2020/12/31 04:22:36;;;;;;;5.80;3.93;;;4.50;99.90;;;;;;4999262;28;20171;-89
2020/12/31 04:25:02;;;;;;;7.47;3.70;;;4.70;99.90;;;;;;5015766;28;20223;-90
2020/12/31 04:27:28;;;;;;;5.07;3.37;;;4.90;99.90;;;;;;5015372;28;20227;-89
2020/12/31 04:29:57;;;;;;;12.87;4.87;;;5.20;99.90;;;;;;4998776;28;20195;-90
2020/12/31 04:32:25;;;;;;;6.83;4.50;;;5.40;99.90;;;;;;5012949;28;20246;-89
2020/12/31 04:34:53;;;;;;;5.03;3.77;;;5.60;99.90;;;;;;5007383;28;20301;-89
2020/12/31 04:37:19;;;;;;;5.57;3.97;;;5.60;99.90;;;;;;4979813;28;20201;-90
2020/12/31 04:39:54;;;;;;;7.60;4.03;;;5.50;99.90;;;;;;4991436;28;20184;-90
2020/12/31 04:42:20;;;;;;;5.50;3.67;;;5.50;99.90;;;;;;4993125;28;20200;-90
2020/12/31 04:44:46;;;;;;;4.90;3.73;;;5.60;99.90;;;;;;4979648;28;20177;-89
2020/12/31 04:47:22;;;;;;;4.73;3.87;;;5.80;99.90;;;;;;4998001;28;20264;-89
2020/12/31 04:49:53;;;;;;;4.40;4.00;;;5.90;99.90;;;;;;5014274;28;20188;-89
2020/12/31 04:52:19;;;;;;;5.23;3.83;;;6.00;99.90;;;;;;4983057;28;20188;-89
2020/12/31 04:54:45;;;;;;;4.10;3.70;;;5.70;99.90;;;;;;4995781;28;20178;-89
2020/12/31 04:57:11;;;;;;;5.03;4.00;;;5.40;99.90;;;;;;5008910;28;20235;-89
2020/12/31 04:59:37;;;;;;;4.83;4.40;;;5.30;99.90;;;;;;5002802;28;20259;-89
2020/12/31 05:02:06;;;;;;;5.60;4.23;;;5.20;99.90;;;;;;4998733;28;20189;-89
2020/12/31 05:04:34;;;;;;;5.03;4.23;;;5.30;99.90;;;;;;5014494;28;20248;-89
2020/12/31 05:07:00;;;;;;;4.97;4.53;;;5.00;99.90;;;;;;4998881;28;20180;-89
2020/12/31 05:12:16;;;;;;;5.57;4.47;;;4.70;99.90;;;;;;4996298;28;20271;-89
2020/12/31 05:14:42;;;;;;;4.20;3.80;;;4.50;99.90;;;;;;4979144;28;20173;-89
2020/12/31 05:17:12;;;;;;;4.77;4.23;;;4.60;99.90;;;;;;4979041;28;20288;-90
2020/12/31 05:19:44;;;;;;;5.20;4.70;;;4.70;99.90;;;;;;4992319;28;20185;-89
2020/12/31 05:22:11;;;;;;;4.97;4.47;;;4.80;99.90;;;;;;4998640;28;20180;-90
2020/12/31 05:24:37;;;;;;;6.30;5.57;;;4.90;99.90;;;;;;4995429;28;20189;-90
2020/12/31 05:27:23;;;;;;;6.50;5.57;;;5.10;99.90;;;;;;4998240;28;20200;-84
2020/12/31 05:30:03;;;;;;;5.33;4.83;;;5.40;99.90;;;;;;4996254;28;20191;-89
2020/12/31 05:32:31;;;;;;;5.77;5.27;;;5.60;99.90;;;;;;4994747;28;20173;-90
2020/12/31 05:34:58;;;;;;;9.57;4.70;;;5.50;99.90;;;;;;5005560;28;20180;-90
2020/12/31 05:37:27;;;;;;;5.00;4.40;;;5.60;99.90;;;;;;5014527;28;20196;-90
2020/12/31 05:40:01;;;;;;;4.87;4.37;;;5.70;99.90;;;;;;5014178;28;20191;-90
2020/12/31 05:42:29;;;;;;;5.07;4.57;;;5.40;99.90;;;;;;5005315;28;20226;-88
2020/12/31 05:45:00;;;;;;;5.93;4.83;;;5.00;99.90;;;;;;5014435;28;20622;-90
2020/12/31 05:47:26;;;;;;;8.57;4.73;;;5.00;99.90;;;;;;5014045;28;20189;-89
2020/12/31 05:49:54;;;;;;;5.13;4.73;;;5.00;99.90;;;;;;5014011;28;20177;-90
2020/12/31 05:52:38;;;;;;;5.10;4.67;;;5.10;99.90;;;;;;5020748;28;20178;-90
2020/12/31 05:55:06;;;;;;;5.40;4.90;;;5.20;99.90;;;;;;5013895;28;20176;-90
2020/12/31 05:57:46;;;;;;;4.23;3.93;;;5.10;99.90;;;;;;4997446;28;20200;-90
2020/12/31 06:00:36;;;;;;;4.70;4.27;;;5.20;99.90;;;;;;4999933;28;20503;-90
2020/12/31 06:03:02;;;;;;;5.10;4.40;;;5.30;99.90;;;;;;4994093;28;20165;-90
2020/12/31 06:05:32;;;;;;;4.93;4.47;;;5.40;99.90;;;;;;4991721;28;20180;-90
2020/12/31 06:08:07;;;;;;;4.60;4.20;;;5.30;99.90;;;;;;5014078;28;20169;-90
2020/12/31 06:10:44;;;;;;;5.27;4.83;;;5.20;99.90;;;;;;4997715;28;20263;-90
2020/12/31 06:13:31;;;;;;;7.27;4.70;;;5.20;99.90;;;;;;4997877;28;20175;-90
2020/12/31 06:16:03;;;;;;;5.43;4.80;;;5.40;99.90;;;;;;5013562;28;20188;-91
2020/12/31 06:18:37;;;;;;;4.40;4.07;;;5.50;99.90;;;;;;5005339;28;20216;-91
2020/12/31 06:21:03;;;;;;;5.17;4.73;;;5.30;99.90;;;;;;5029458;28;20192;-91
2020/12/31 06:23:37;;;;;;;4.47;4.07;;;4.90;99.90;;;;;;5008723;28;20638;-90
2020/12/31 06:26:13;;;;;;;11.70;5.67;;;4.50;99.90;;;;;;5007041;28;20173;-90
2020/12/31 06:28:47;;;;;;;6.03;4.73;;;4.50;99.90;;;;;;5013798;28;20168;-91
2020/12/31 06:31:13;;;;;;;5.87;5.37;;;4.50;99.90;;;;;;4988506;28;20179;-90
2020/12/31 06:33:56;;;;;;;9.00;5.73;;;4.70;99.90;;;;;;5017608;28;20167;-90
2020/12/31 06:36:32;;;;;;;6.93;6.03;;;5.00;99.90;;;;;;5003218;28;20180;-91
2020/12/31 06:39:02;;;;;;;6.20;5.60;;;5.00;99.90;;;;;;5016675;28;20226;-91
2020/12/31 06:41:38;;;;;;;9.53;6.40;;;5.20;99.90;;;;;;4997915;28;20181;-91
2020/12/31 06:44:12;;;;;;;9.77;5.87;;;5.60;99.90;;;;;;4996335;28;20173;-91
2020/12/31 06:46:54;;;;;;;6.83;6.30;;;5.70;99.90;;;;;;4997162;28;20171;-91
2020/12/31 06:49:22;;;;;;;8.17;6.40;;;5.90;99.90;;;;;;4995088;28;20189;-91
2020/12/31 06:51:50;;;;;;;7.63;6.27;;;6.00;99.90;;;;;;4997855;28;20171;-90
2020/12/31 06:54:31;;;;;;;9.33;6.83;;;6.00;99.90;;;;;;4993911;28;20186;-90
2020/12/31 06:56:59;;;;;;;8.37;6.97;;;5.90;99.90;;;;;;4994309;28;20263;-91
2020/12/31 06:59:25;;;;;;;6.67;6.07;;;5.60;99.90;;;;;;4975662;28;20180;-90
2020/12/31 07:01:55;;;;;;;7.33;6.63;;;5.60;99.90;;;;;;4996527;28;20177;-91
2020/12/31 07:04:57;;;;;;;6.33;5.80;;;5.80;99.90;;;;;;5013149;28;20173;-90
2020/12/31 07:07:34;;;;;;;6.67;6.07;;;5.80;99.90;;;;;;4994856;28;20189;-91
2020/12/31 07:10:05;;;;;;;6.13;5.50;;;5.60;99.90;;;;;;5016273;28;20164;-91
2020/12/31 07:12:41;;;;;;;6.40;5.80;;;5.50;99.90;;;;;;5010332;28;20187;-90
2020/12/31 07:15:18;;;;;;;5.53;5.10;;;5.30;99.90;;;;;;5012468;28;20610;-90
2020/12/31 07:17:50;;;;;;;5.90;5.10;;;5.10;99.90;;;;;;4997333;28;20243;-91
2020/12/31 07:20:19;;;;;;;5.77;5.30;;;5.10;99.90;;;;;;5002537;28;20185;-90
2020/12/31 07:22:58;;;;;;;5.17;4.77;;;4.90;99.90;;;;;;5016860;28;20176;-91
2020/12/31 07:25:44;;;;;;;5.80;5.33;;;4.90;99.90;;;;;;4981424;28;20177;-91
2020/12/31 07:28:21;;;;;;;5.53;5.13;;;5.10;99.90;;;;;;4981015;28;20272;-91
2020/12/31 07:30:55;;;;;;;6.87;5.20;;;4.80;99.90;;;;;;4982690;28;20189;-91
2020/12/31 07:33:40;;;;;;;5.77;5.30;;;4.90;99.90;;;;;;5000327;28;20266;-91
2020/12/31 07:36:28;;;;;;;5.60;5.20;;;5.10;99.90;;;;;;4999377;28;20196;-91
2020/12/31 07:38:57;;;;;;;5.37;4.97;;;5.30;99.90;;;;;;4987402;28;20201;-91
2020/12/31 07:41:43;;;;;;;6.13;5.63;;;5.60;99.90;;;;;;4999788;28;20536;-90
2020/12/31 07:44:09;;;;;;;5.30;4.83;;;5.60;99.90;;;;;;5010482;28;20219;-90
2020/12/31 07:46:52;;;;;;;;;;;;;;;;;;;;;
2020/12/31 07:49:18;;;;;;;7.73;5.90;;;5.90;99.90;;;;;;5004464;28;20240;-91
2020/12/31 07:52:00;;;;;;;6.63;6.10;;;5.90;99.90;;;;;;5001653;28;20200;-91
2020/12/31 07:54:28;;;;;;;6.70;6.10;;;5.90;99.90;;;;;;5018581;28;20223;-90
2020/12/31 07:56:57;;;;;;;7.47;6.87;;;6.00;99.90;;;;;;4981861;28;20190;-90
2020/12/31 07:59:31;;;;;;;6.43;5.93;;;5.90;99.90;;;;;;4982569;28;20185;-91
2020/12/31 08:02:20;;;;;;;6.27;5.77;;;5.60;99.90;;;;;;4981554;28;20189;-91
2020/12/31 08:04:56;;;;;;;5.77;5.37;;;5.20;99.90;;;;;;4998526;28;20208;-91
2020/12/31 08:07:42;;;;;;;;;;;;;;;;;;;;;
2020/12/31 08:10:43;;;;;;;;;;;;;;;;;;;;;
2020/12/31 08:13:20;;;;;;;6.13;5.53;;;4.70;99.90;;;;;;5014002;28;20600;-91
2020/12/31 08:15:54;;;;;;;5.53;5.03;;;4.80;99.90;;;;;;4998427;28;20169;-91
2020/12/31 08:18:25;;;;;;;6.07;5.60;;;4.80;99.90;;;;;;5003624;28;20204;-91
2020/12/31 08:20:58;;;;;;;6.60;6.00;;;4.70;99.90;;;;;;5018578;28;20227;-91
2020/12/31 08:23:34;;;;;;;6.50;6.00;;;4.80;99.90;;;;;;5000996;28;20185;-90
2020/12/31 08:26:10;;;;;;;6.40;5.80;;;4.80;99.90;;;;;;5000812;28;20180;-91
2020/12/31 08:29:07;;;;;;;5.80;5.37;;;4.80;99.90;;;;;;4994121;28;20533;-91
2020/12/31 08:32:23;;;;;;;;;;;;;;;;;;;;;
2020/12/31 08:35:14;;;;;;;6.07;5.57;;;4.80;99.90;;;;;;5010087;28;20267;-91
2020/12/31 08:37:40;;;;;;;6.70;5.80;;;4.90;99.90;;;;;;5019717;28;20232;-91
2020/12/31 08:40:08;;;;;;;6.43;5.93;;;5.00;99.90;;;;;;5012200;28;20179;-92
2020/12/31 08:42:39;;;;;;;7.07;6.47;;;5.30;99.90;;;;;;5019385;28;20622;-90
2020/12/31 08:45:13;;;;;;;7.40;6.70;;;5.50;99.90;;;;;;5014447;28;20273;-92
2020/12/31 08:47:41;;;;;;;8.03;7.23;;;5.50;99.90;;;;;;4983453;28;20181;-92
2020/12/31 08:50:18;;;;;;;7.73;7.13;;;5.60;99.90;;;;;;4980028;28;20184;-92
2020/12/31 08:52:49;;;;;;;10.13;7.50;;;5.70;99.90;;;;;;4995893;28;20560;-91
2020/12/31 08:55:17;;;;;;;7.87;7.17;;;5.80;99.90;;;;;;4997481;28;20204;-91
2020/12/31 08:57:46;;;;;;;7.93;7.23;;;5.90;99.90;;;;;;4997341;28;20205;-91
2020/12/31 09:00:12;;;;;;;7.90;7.30;;;5.80;99.90;;;;;;5013591;28;20204;-92
2020/12/31 09:02:40;;;;;;;9.10;7.70;;;5.90;99.90;;;;;;4989748;28;20189;-93
2020/12/31 09:05:20;;;;;;;8.33;7.40;;;6.10;99.90;;;;;;4998700;28;20173;-93
2020/12/31 09:07:57;;;;;;;9.57;7.77;;;6.40;99.90;;;;;;4982973;28;20598;-92
2020/12/31 09:10:38;;;;;;;15.23;8.00;;;6.60;99.90;;;;;;4982765;28;20173;-92
2020/12/31 09:13:07;;;;;;;10.33;9.33;;;6.80;99.90;;;;;;4981549;28;20173;-92
2020/12/31 09:15:37;;;;;;;9.63;8.70;;;7.00;99.90;;;;;;4995271;28;20169;-94
2020/12/31 09:18:16;;;;;;;9.20;8.30;;;7.10;99.90;;;;;;5003479;28;20201;-91
2020/12/31 09:20:42;;;;;;;9.00;8.20;;;7.30;99.90;;;;;;5022480;28;20169;-94
2020/12/31 09:23:23;;;;;;;;;;;;;;;;;;;;;
2020/12/31 09:26:01;;;;;;;7.60;6.90;;;7.50;99.90;;;;;;5038782;28;20176;-94
2020/12/31 09:28:28;;;;;;;8.47;7.17;;;7.60;99.90;;;;;;5022084;28;20185;-91
2020/12/31 09:30:55;;;;;;;8.17;7.50;;;7.90;99.90;;;;;;5016919;28;20637;-92
2020/12/31 09:33:25;;;;;;;8.40;7.70;;;8.20;99.90;;;;;;5015598;28;20173;-92
2020/12/31 09:35:51;;;;;;;8.57;7.77;;;8.40;99.90;;;;;;5015542;28;20196;-91
2020/12/31 09:38:40;;;;;;;7.33;6.73;;;8.50;99.90;;;;;;5015452;28;20200;-92
2020/12/31 09:41:08;;;;;;;7.53;6.93;;;8.10;99.90;;;;;;4996609;28;20197;-92
2020/12/31 09:43:55;;;;;;;6.83;6.33;;;8.00;99.90;;;;;;4981150;28;20260;-92
2020/12/31 09:46:24;;;;;;;7.80;7.10;;;8.30;99.90;;;;;;4979156;28;20169;-92
2020/12/31 09:49:03;;;;;;;6.63;6.03;;;8.40;99.90;;;;;;4978981;28;20194;-92
2020/12/31 09:51:38;;;;;;;7.17;6.47;;;8.60;99.90;;;;;;4978853;28;20212;-93
2020/12/31 09:54:26;;;;;;;;;;;;;;;;;;;;;
2020/12/31 09:56:51;;;;;;;7.97;7.17;;;9.60;99.90;;;;;;4994430;28;20174;-85
2020/12/31 09:59:17;;;;;;;5.43;4.95;;;9.90;99.90;;;;;;4991616;28;20295;-84
2020/12/31 10:01:45;;;;;;;6.70;5.60;;;9.90;99.90;;;;;;4996410;28;20260;-84
2020/12/31 10:04:10;;;;;;;6.95;5.60;;;9.80;99.90;;;;;;4964516;28;20186;-84
2020/12/31 10:06:36;;;;;;;5.57;5.07;;;9.80;99.90;;;;;;5013652;28;20252;-84
2020/12/31 10:09:02;;;;;;;5.50;5.10;;;9.70;99.90;;;;;;4979919;28;20226;-85
2020/12/31 10:11:29;;;;;;;6.60;4.95;;;9.50;99.90;;;;;;5012796;28;20173;-85
2020/12/31 10:13:54;;;;;;;7.05;5.53;;;9.50;99.90;;;;;;4995657;28;20260;-79
2020/12/31 10:16:20;;;;;;;6.22;5.72;;;9.60;99.90;;;;;;4993595;28;20263;-73
2020/12/31 10:18:46;;;;;;;8.80;7.22;;;9.60;99.90;;;;;;5013605;28;20726;-80
2020/12/31 10:21:13;;;;;;;6.90;6.20;;;9.50;99.90;;;;;;4963493;28;20189;-79
2020/12/31 10:23:39;;;;;;;7.88;7.25;;;9.30;99.90;;;;;;4992450;28;20185;-79
2020/12/31 10:26:04;;;;;;;7.23;6.63;;;9.10;99.90;;;;;;4972212;28;20177;-80
2020/12/31 10:28:30;;;;;;;8.10;6.40;;;9.00;99.90;;;;;;5004290;28;20530;-79
2020/12/31 10:30:58;;;;;;;7.30;6.70;;;8.90;99.90;;;;;;4993709;28;20297;-79
2020/12/31 10:33:23;;;;;;;12.00;6.27;;;8.70;99.90;;;;;;5012895;28;20251;-79
2020/12/31 10:35:49;;;;;;;8.27;6.57;;;8.60;99.90;;;;;;4992819;28;20559;-79
2020/12/31 10:38:14;;;;;;;9.57;6.80;;;8.60;99.90;;;;;;4979416;28;20205;-76
2020/12/31 10:40:40;;;;;;;9.73;5.83;;;8.60;99.90;;;;;;4980020;28;20227;-79
2020/12/31 10:43:06;;;;;;;7.30;6.00;;;8.60;99.90;;;;;;4979698;28;20204;-77
2020/12/31 10:45:31;;;;;;;7.60;5.47;;;8.40;99.90;;;;;;4979063;28;20184;-78
2020/12/31 10:47:57;;;;;;;6.23;5.30;;;8.30;99.90;;;;;;4979289;28;20240;-78
2020/12/31 10:50:22;;;;;;;6.07;5.30;;;8.10;99.90;;;;;;4995916;28;20599;-78
2020/12/31 10:52:48;;;;;;;5.60;5.10;;;7.60;99.90;;;;;;5011072;28;20211;-78
2020/12/31 10:55:14;;;;;;;6.03;5.17;;;6.90;99.90;;;;;;5016772;28;20184;-79
2020/12/31 10:57:39;;;;;;;6.13;5.53;;;6.90;99.90;;;;;;5017238;28;20662;-79
2020/12/31 11:00:05;;;;;;;6.80;5.30;;;7.40;99.90;;;;;;4999718;28;20638;-79
2020/12/31 11:02:31;;;;;;;5.87;5.37;;;8.10;99.90;;;;;;4983667;28;20176;-78
2020/12/31 11:04:56;;;;;;;5.43;5.00;;;9.00;99.90;;;;;;4983809;28;20184;-78
2020/12/31 11:07:22;;;;;;;5.17;4.77;;;9.60;99.90;;;;;;5000649;28;20220;-80
2020/12/31 11:09:47;;;;;;;5.50;4.83;;;10.00;99.90;;;;;;5005960;28;20196;-82
2020/12/31 11:12:13;;;;;;;7.18;6.38;;;10.00;99.90;;;;;;4995407;28;20188;-79
2020/12/31 11:14:39;;;;;;;11.87;6.67;;;9.00;99.90;;;;;;4983541;28;20220;-79
2020/12/31 11:17:05;;;;;;;5.47;4.53;;;7.80;99.90;;;;;;5016767;28;20180;-78
2020/12/31 11:19:30;;;;;;;4.53;4.13;;;7.90;99.90;;;;;;5009120;28;20539;-80
2020/12/31 11:21:56;;;;;;;6.27;4.37;;;8.40;99.90;;;;;;4983020;28;20200;-78
2020/12/31 11:24:22;;;;;;;5.67;4.57;;;9.10;99.90;;;;;;4963758;28;20596;-78
2020/12/31 11:26:49;;;;;;;5.03;4.53;;;9.30;99.90;;;;;;4983517;28;20252;-80
2020/12/31 11:29:15;;;;;;;4.80;4.37;;;9.10;99.90;;;;;;4989558;28;20197;-79
2020/12/31 11:31:41;;;;;;;5.07;4.00;;;9.10;99.90;;;;;;5016509;28;20631;-78
2020/12/31 11:34:06;;;;;;;6.30;4.00;;;8.60;99.90;;;;;;4966009;28;20180;-78
2020/12/31 11:36:32;;;;;;;4.93;4.43;;;8.40;99.90;;;;;;4979713;28;20181;-78
2020/12/31 11:38:58;;;;;;;5.67;4.63;;;8.20;99.90;;;;;;4993501;28;20194;-79
2020/12/31 11:41:24;;;;;;;4.70;4.30;;;6.90;99.90;;;;;;4963945;28;20181;-78
2020/12/31 11:43:50;;;;;;;10.10;4.60;;;6.80;99.90;;;;;;4999021;28;20615;-78
2020/12/31 11:46:16;;;;;;;4.70;4.30;;;7.20;99.90;;;;;;4999056;28;20204;-78
2020/12/31 11:48:42;;;;;;;5.23;4.43;;;7.60;99.90;;;;;;4998599;28;20696;-79
2020/12/31 11:51:09;;;;;;;5.17;4.77;;;7.90;99.90;;;;;;5016344;28;20172;-78
2020/12/31 11:53:35;;;;;;;5.20;4.70;;;7.60;99.90;;;;;;4998965;28;20179;-79
2020/12/31 11:56:01;;;;;;;5.57;4.23;;;7.80;99.90;;;;;;5015639;28;20252;-77
2020/12/31 11:58:28;;;;;;;5.87;4.90;;;7.80;99.90;;;;;;4998056;28;20219;-76
2020/12/31 12:00:53;;;;;;;6.17;5.50;;;7.80;99.90;;;;;;5015939;28;20185;-78
2020/12/31 12:03:19;;;;;;;6.50;5.50;;;7.80;99.90;;;;;;5016317;28;20191;-78
2020/12/31 12:05:45;;;;;;;6.37;5.83;;;7.50;99.90;;;;;;4996687;28;20192;-75
2020/12/31 12:08:10;;;;;;;10.63;6.97;;;7.80;99.90;;;;;;4996103;28;20182;-76
2020/12/31 12:10:36;;;;;;;8.03;6.07;;;8.00;99.90;;;;;;5015509;28;20189;-77
2020/12/31 12:13:02;;;;;;;6.93;6.23;;;8.20;99.90;;;;;;4998848;28;20187;-77
2020/12/31 12:15:27;;;;;;;6.73;6.13;;;8.50;99.90;;;;;;5016565;28;20530;-79
2020/12/31 12:17:53;;;;;;;6.27;5.67;;;8.70;99.90;;;;;;4982391;28;20225;-79
2020/12/31 12:20:19;;;;;;;11.80;5.73;;;8.60;99.90;;;;;;5015788;28;20195;-79
2020/12/31 12:22:45;;;;;;;6.43;5.83;;;8.70;99.90;;;;;;5015780;28;20622;-80
2020/12/31 12:25:12;;;;;;;7.27;6.67;;;8.70;99.90;;;;;;5016084;28;20173;-77
2020/12/31 12:27:38;;;;;;;9.47;6.83;;;8.40;99.90;;;;;;5016008;28;20173;-79
2020/12/31 12:30:09;;;;;;;14.23;7.80;;;8.50;99.90;;;;;;4984409;28;20181;-88
2020/12/31 12:32:39;;;;;;;8.03;7.23;;;7.80;99.90;;;;;;4964597;28;20177;-90
2020/12/31 12:35:10;;;;;;;8.63;7.03;;;7.90;99.90;;;;;;4980231;28;20170;-91
2020/12/31 12:37:38;;;;;;;8.03;7.03;;;8.10;99.90;;;;;;5001325;28;20199;-90
2020/12/31 12:40:06;;;;;;;7.53;6.90;;;8.60;99.90;;;;;;4999984;28;20173;-91
2020/12/31 12:42:36;;;;;;;8.00;7.30;;;9.00;99.90;;;;;;5016569;28;20206;-92
2020/12/31 12:45:03;;;;;;;8.35;7.55;;;9.10;99.90;;;;;;5000274;28;20165;-91
2020/12/31 12:47:32;;;;;;;9.13;7.93;;;9.50;99.90;;;;;;5016046;28;20172;-91
2020/12/31 12:50:00;;;;;;;12.77;9.13;;;9.40;99.90;;;;;;5016157;28;20161;-91
2020/12/31 12:52:25;;;;;;;10.27;8.93;;;9.60;99.90;;;;;;5015863;28;20499;-91
2020/12/31 12:54:53;;;;;;;10.07;8.37;;;9.30;99.90;;;;;;5014725;28;20175;-91
2020/12/31 12:57:19;;;;;;;10.13;9.10;;;9.40;99.90;;;;;;4979804;28;20173;-90
2020/12/31 12:59:45;;;;;;;11.25;9.00;;;9.50;99.90;;;;;;5005724;28;20176;-91
2020/12/31 13:02:21;;;;;;;17.70;11.25;;;9.40;99.90;;;;;;5001192;28;20185;-91
2020/12/31 13:04:46;;;;;;;15.18;10.73;;;9.20;99.90;;;;;;4999837;28;20179;-91
2020/12/31 13:07:15;;;;;;;14.40;10.63;;;9.00;99.90;;;;;;4999740;28;20173;-91
2020/12/31 13:09:41;;;;;;;17.40;11.63;;;8.10;99.90;;;;;;4993745;28;20683;-90
2020/12/31 13:12:07;;;;;;;17.70;12.20;;;8.00;99.90;;;;;;5004294;28;20200;-91
2020/12/31 13:14:33;;;;;;;15.43;12.23;;;8.20;99.90;;;;;;5016401;28;20168;-91
2020/12/31 13:16:59;;;;;;;13.98;11.82;;;8.10;99.90;;;;;;5016605;28;20177;-91